Time;durP1;ratioP1;P1;durP2;ratioP2;P2;SDS_P1;SDS_P2;PMS_P1;PMS_P2;Temp;Humidity;BMP_temperature;BMP_pressure;BME280_temperature;BME280_humidity;BME280_pressure;Samples;Min_cycle;Max_cycle;Signal;HPM_P1;HPM_P2
2022/04/23 00:00:28;;;;;;;2.80;2.60;;;;;;;;;;6188684;23;20182;-87
2022/04/23 00:02:59;;;;;;;4.90;4.40;;;;;;;;;;6190572;23;20174;-87
2022/04/23 00:05:29;;;;;;;3.10;2.80;;;;;;;;;;6190250;23;20222;-87
2022/04/23 00:07:57;;;;;;;2.93;2.47;;;;;;;;;;6190174;23;20171;-87
2022/04/23 00:10:26;;;;;;;4.57;3.37;;;;;;;;;;6189879;23;20170;-88
2022/04/23 00:12:55;;;;;;;5.37;4.77;;;;;;;;;;6190304;23;20179;-88
2022/04/23 00:15:25;;;;;;;5.23;3.57;;;;;;;;;;6216992;23;20178;-87
2022/04/23 00:17:54;;;;;;;4.47;3.67;;;;;;;;;;6190294;23;20179;-87
2022/04/23 00:20:24;;;;;;;3.77;3.37;;;;;;;;;;6216669;23;20250;-87
2022/04/23 00:22:53;;;;;;;3.67;2.43;;;;;;;;;;6190325;23;20229;-88
2022/04/23 00:25:21;;;;;;;4.13;3.70;;;;;;;;;;6190114;23;20178;-88
2022/04/23 00:27:51;;;;;;;4.83;4.33;;;;;;;;;;6190097;23;20174;-87
2022/04/23 00:30:20;;;;;;;2.70;2.50;;;;;;;;;;6216377;23;20178;-87
2022/04/23 00:32:48;;;;;;;8.30;4.27;;;;;;;;;;6190101;23;20181;-87
2022/04/23 00:35:17;;;;;;;2.03;1.93;;;;;;;;;;6215266;23;20185;-87
2022/04/23 00:37:47;;;;;;;7.67;4.73;;;;;;;;;;6189690;23;20260;-87
2022/04/23 00:40:17;;;;;;;4.30;3.10;;;;;;;;;;6190189;23;20190;-87
2022/04/23 00:42:47;;;;;;;7.37;3.57;;;;;;;;;;6189640;23;20225;-87
2022/04/23 00:45:15;;;;;;;3.83;3.10;;;;;;;;;;6189785;23;20174;-87
2022/04/23 00:47:44;;;;;;;4.90;4.23;;;;;;;;;;6189690;23;20190;-87
2022/04/23 00:50:12;;;;;;;3.30;3.00;;;;;;;;;;6190036;23;20206;-87
2022/04/23 00:52:41;;;;;;;3.57;3.10;;;;;;;;;;6190040;23;20205;-87
2022/04/23 00:55:11;;;;;;;3.93;3.07;;;;;;;;;;6216394;23;20190;-87
2022/04/23 00:57:40;;;;;;;4.90;3.20;;;;;;;;;;6189706;23;20304;-87
2022/04/23 01:00:09;;;;;;;5.83;3.77;;;;;;;;;;6214729;23;20180;-87
2022/04/23 01:02:38;;;;;;;4.43;3.70;;;;;;;;;;6189772;23;20176;-87
2022/04/23 01:05:08;;;;;;;4.37;3.97;;;;;;;;;;6189819;23;20179;-87
2022/04/23 01:07:39;;;;;;;5.57;4.27;;;;;;;;;;6214583;23;20270;-87
2022/04/23 01:10:08;;;;;;;6.70;6.03;;;;;;;;;;6215807;23;20181;-87
2022/04/23 01:12:38;;;;;;;7.87;4.90;;;;;;;;;;6188870;23;20198;-87
2022/04/23 01:15:07;;;;;;;9.80;8.90;;;;;;;;;;6189956;23;20185;-87
2022/04/23 01:17:36;;;;;;;4.10;3.67;;;;;;;;;;6189784;23;20179;-87
2022/04/23 01:20:07;;;;;;;8.37;6.07;;;;;;;;;;6189276;23;20242;-87
2022/04/23 01:22:37;;;;;;;4.43;3.67;;;;;;;;;;6190033;23;20175;-87
2022/04/23 01:25:06;;;;;;;8.30;6.77;;;;;;;;;;6189579;23;20179;-87
2022/04/23 01:27:35;;;;;;;7.70;6.50;;;;;;;;;;6214751;23;20175;-87
2022/04/23 01:30:04;;;;;;;5.57;5.00;;;;;;;;;;6189665;23;20178;-87
2022/04/23 01:32:32;;;;;;;4.33;3.50;;;;;;;;;;6215284;23;20201;-87
2022/04/23 01:35:00;;;;;;;6.37;5.77;;;;;;;;;;6215586;23;20174;-87
2022/04/23 01:37:30;;;;;;;8.73;6.80;;;;;;;;;;6184599;23;20207;-87
2022/04/23 01:39:59;;;;;;;3.97;3.60;;;;;;;;;;6185286;23;20190;-87
2022/04/23 01:42:27;;;;;;;9.80;7.90;;;;;;;;;;6185580;23;20171;-87
2022/04/23 01:44:56;;;;;;;11.77;7.77;;;;;;;;;;6184231;23;20257;-87
2022/04/23 01:47:24;;;;;;;9.67;7.27;;;;;;;;;;6184005;23;20193;-87
2022/04/23 01:49:53;;;;;;;9.27;7.33;;;;;;;;;;6184475;23;20178;-87
2022/04/23 01:52:21;;;;;;;8.77;6.20;;;;;;;;;;6184200;23;20197;-87
2022/04/23 01:54:51;;;;;;;8.93;7.30;;;;;;;;;;6184681;23;20239;-87
2022/04/23 01:57:20;;;;;;;7.50;6.73;;;;;;;;;;6186074;23;20178;-87
2022/04/23 01:59:48;;;;;;;11.03;9.83;;;;;;;;;;6184422;23;20207;-87
2022/04/23 02:02:17;;;;;;;9.67;6.17;;;;;;;;;;6184098;23;20229;-87
2022/04/23 02:04:46;;;;;;;9.80;8.70;;;;;;;;;;6184386;23;20183;-87
2022/04/23 02:07:14;;;;;;;9.70;8.27;;;;;;;;;;6183692;23;20207;-87
2022/04/23 02:09:43;;;;;;;13.23;8.93;;;;;;;;;;6183845;23;20182;-87
2022/04/23 02:12:13;;;;;;;13.00;10.33;;;;;;;;;;6184118;23;20191;-87
2022/04/23 02:14:41;;;;;;;15.23;12.07;;;;;;;;;;6184100;23;20172;-87
2022/04/23 02:17:10;;;;;;;8.43;6.83;;;;;;;;;;6183906;23;20180;-87
2022/04/23 02:19:38;;;;;;;12.33;8.00;;;;;;;;;;6185599;23;20175;-87
2022/04/23 02:22:07;;;;;;;12.63;9.63;;;;;;;;;;6184261;23;20182;-87
2022/04/23 02:24:36;;;;;;;9.20;6.53;;;;;;;;;;6185320;23;20179;-87
2022/04/23 02:27:05;;;;;;;8.67;6.93;;;;;;;;;;6185040;23;20202;-87
2022/04/23 02:29:35;;;;;;;15.57;13.97;;;;;;;;;;6184354;23;20190;-87
2022/04/23 02:32:04;;;;;;;11.03;9.17;;;;;;;;;;6183329;23;20190;-87
2022/04/23 02:34:32;;;;;;;12.50;9.57;;;;;;;;;;6184459;23;20175;-87
2022/04/23 02:37:02;;;;;;;12.10;10.83;;;;;;;;;;6183520;23;20211;-87
2022/04/23 02:39:30;;;;;;;8.53;6.57;;;;;;;;;;6184204;23;20181;-87
2022/04/23 02:41:58;;;;;;;13.07;11.10;;;;;;;;;;6183652;23;20201;-87
2022/04/23 02:44:28;;;;;;;15.00;11.93;;;;;;;;;;6183618;23;20221;-87
2022/04/23 02:46:59;;;;;;;9.63;8.13;;;;;;;;;;6183949;23;20179;-87
2022/04/23 02:49:27;;;;;;;13.97;10.40;;;;;;;;;;6183818;23;20253;-87
2022/04/23 02:51:55;;;;;;;17.30;12.97;;;;;;;;;;6183665;23;20171;-87
2022/04/23 02:54:24;;;;;;;10.77;9.63;;;;;;;;;;6184002;23;20187;-87
2022/04/23 02:56:54;;;;;;;12.27;8.83;;;;;;;;;;6185267;23;20175;-87
2022/04/23 02:59:22;;;;;;;16.80;13.23;;;;;;;;;;6184215;23;20182;-87
2022/04/23 03:01:52;;;;;;;14.43;11.03;;;;;;;;;;6183526;23;20171;-87
2022/04/23 03:04:22;;;;;;;14.93;11.40;;;;;;;;;;6183485;23;20175;-87
2022/04/23 03:06:50;;;;;;;9.17;7.13;;;;;;;;;;6183399;23;20198;-87
2022/04/23 03:09:18;;;;;;;12.20;10.80;;;;;;;;;;6184003;23;20175;-87
2022/04/23 03:11:47;;;;;;;12.17;10.70;;;;;;;;;;6185170;23;20174;-87
2022/04/23 03:14:16;;;;;;;14.90;9.47;;;;;;;;;;6183767;23;20195;-87
2022/04/23 03:16:44;;;;;;;13.40;11.07;;;;;;;;;;6185319;23;20242;-87
2022/04/23 03:19:13;;;;;;;14.93;12.03;;;;;;;;;;6183690;23;20179;-87
2022/04/23 03:21:43;;;;;;;10.73;8.33;;;;;;;;;;6183843;23;20182;-87
2022/04/23 03:24:11;;;;;;;10.13;9.13;;;;;;;;;;6183581;23;20175;-87
2022/04/23 03:26:39;;;;;;;10.83;9.40;;;;;;;;;;6184829;23;20176;-87
2022/04/23 03:29:08;;;;;;;13.37;11.90;;;;;;;;;;6183863;23;20178;-87
2022/04/23 03:31:37;;;;;;;13.53;10.90;;;;;;;;;;6183650;23;20179;-87
2022/04/23 03:34:07;;;;;;;9.67;7.27;;;;;;;;;;6183284;23;20195;-87
2022/04/23 03:36:36;;;;;;;12.50;9.70;;;;;;;;;;6200007;23;20202;-87
2022/04/23 03:39:05;;;;;;;13.43;11.70;;;;;;;;;;6190457;23;20183;-87
2022/04/23 03:41:34;;;;;;;14.43;12.10;;;;;;;;;;6190604;23;20182;-87
2022/04/23 03:44:03;;;;;;;17.00;15.20;;;;;;;;;;6216850;23;20209;-87
2022/04/23 03:46:31;;;;;;;14.67;10.47;;;;;;;;;;6190341;23;20178;-87
2022/04/23 03:49:00;;;;;;;12.53;11.13;;;;;;;;;;6190551;23;20213;-87
2022/04/23 03:51:28;;;;;;;13.13;9.73;;;;;;;;;;6190462;23;20181;-87
2022/04/23 03:53:57;;;;;;;14.30;10.73;;;;;;;;;;6190298;23;20194;-87
2022/04/23 03:56:26;;;;;;;10.60;9.50;;;;;;;;;;6190401;23;20179;-87
2022/04/23 03:58:55;;;;;;;10.57;9.53;;;;;;;;;;6190361;23;20174;-87
2022/04/23 04:01:23;;;;;;;13.03;10.27;;;;;;;;;;6190843;23;20180;-87
2022/04/23 04:03:52;;;;;;;18.43;14.27;;;;;;;;;;6190295;23;20175;-87
2022/04/23 04:06:20;;;;;;;17.80;15.07;;;;;;;;;;6190575;23;20252;-87
2022/04/23 04:08:50;;;;;;;16.60;13.27;;;;;;;;;;6190213;23;20202;-87
2022/04/23 04:11:18;;;;;;;16.70;13.60;;;;;;;;;;6190116;23;20178;-87
2022/04/23 04:13:48;;;;;;;16.47;14.23;;;;;;;;;;6189935;23;20238;-87
2022/04/23 04:16:17;;;;;;;13.77;10.83;;;;;;;;;;6190132;23;20185;-87
2022/04/23 04:18:46;;;;;;;12.57;11.07;;;;;;;;;;6189990;23;20178;-87
2022/04/23 04:21:16;;;;;;;12.63;11.03;;;;;;;;;;6216538;23;20193;-87
2022/04/23 04:23:44;;;;;;;16.97;14.90;;;;;;;;;;6190095;23;20166;-87
2022/04/23 04:26:13;;;;;;;14.23;12.73;;;;;;;;;;6190530;23;20175;-87
2022/04/23 04:28:41;;;;;;;10.27;9.37;;;;;;;;;;6189924;23;20182;-87
2022/04/23 04:33:57;;;;;;;11.40;10.20;;;;;;;;;;6190556;23;20202;-87
2022/04/23 04:36:25;;;;;;;11.13;10.03;;;;;;;;;;6216089;23;20210;-87
2022/04/23 04:38:54;;;;;;;15.13;12.80;;;;;;;;;;6216287;23;20166;-87
2022/04/23 04:41:22;;;;;;;14.43;12.73;;;;;;;;;;6189925;23;20182;-87
2022/04/23 04:43:51;;;;;;;8.93;7.57;;;;;;;;;;6216125;23;20163;-87
2022/04/23 04:46:20;;;;;;;7.10;6.13;;;;;;;;;;6190087;23;20238;-87
2022/04/23 04:48:49;;;;;;;12.43;11.13;;;;;;;;;;6216217;23;20166;-87
2022/04/23 04:51:17;;;;;;;14.07;12.67;;;;;;;;;;6189663;23;20178;-87
2022/04/23 04:53:46;;;;;;;10.57;6.40;;;;;;;;;;6189536;23;20205;-87
2022/04/23 04:56:14;;;;;;;12.40;10.90;;;;;;;;;;6216058;23;20181;-87
2022/04/23 04:58:43;;;;;;;12.83;11.50;;;;;;;;;;6216387;23;20177;-87
2022/04/23 05:01:12;;;;;;;9.43;8.47;;;;;;;;;;6189677;23;20178;-87
2022/04/23 05:03:43;;;;;;;8.83;8.07;;;;;;;;;;6190082;23;20175;-87
2022/04/23 05:06:12;;;;;;;16.00;14.40;;;;;;;;;;6190061;23;20199;-87
2022/04/23 05:08:41;;;;;;;12.80;11.50;;;;;;;;;;6190004;23;20175;-87
2022/04/23 05:11:10;;;;;;;14.80;13.30;;;;;;;;;;6189718;23;20539;-87
2022/04/23 05:13:39;;;;;;;11.03;10.03;;;;;;;;;;6216328;23;20190;-87
2022/04/23 05:16:07;;;;;;;11.73;10.57;;;;;;;;;;6189823;23;20189;-87
2022/04/23 05:18:36;;;;;;;11.50;10.30;;;;;;;;;;6189851;23;20184;-87
2022/04/23 05:21:05;;;;;;;9.20;8.17;;;;;;;;;;6189458;23;20183;-87
2022/04/23 05:23:34;;;;;;;10.33;9.20;;;;;;;;;;6189523;23;20175;-87
2022/04/23 05:26:03;;;;;;;9.03;7.73;;;;;;;;;;6189770;23;20185;-87
2022/04/23 05:28:32;;;;;;;8.50;7.63;;;;;;;;;;6189398;23;20181;-87
2022/04/23 05:31:00;;;;;;;7.67;6.93;;;;;;;;;;6189320;23;20174;-87
2022/04/23 05:33:29;;;;;;;7.90;7.10;;;;;;;;;;6189492;23;20205;-87
2022/04/23 05:35:57;;;;;;;10.97;8.20;;;;;;;;;;6189145;23;20182;-83
2022/04/23 05:38:29;;;;;;;10.83;9.77;;;;;;;;;;6189307;23;20269;-87
2022/04/23 05:40:57;;;;;;;11.83;8.77;;;;;;;;;;6189732;23;20208;-87
2022/04/23 05:43:26;;;;;;;12.63;10.97;;;;;;;;;;6189166;23;20174;-87
2022/04/23 05:45:57;;;;;;;10.40;7.43;;;;;;;;;;6188941;23;20170;-87
2022/04/23 05:48:26;;;;;;;14.80;13.40;;;;;;;;;;6189103;23;20179;-87
2022/04/23 05:50:54;;;;;;;12.70;11.50;;;;;;;;;;6215623;23;20171;-87
2022/04/23 05:53:23;;;;;;;9.90;8.23;;;;;;;;;;6189154;23;20175;-87
2022/04/23 05:55:55;;;;;;;6.43;5.83;;;;;;;;;;6189337;23;20178;-87
2022/04/23 05:58:23;;;;;;;7.53;6.83;;;;;;;;;;6189719;23;20174;-87
2022/04/23 06:00:52;;;;;;;12.33;11.13;;;;;;;;;;6215442;23;20174;-87
2022/04/23 06:03:21;;;;;;;10.93;9.67;;;;;;;;;;6189599;23;20178;-87
2022/04/23 06:05:50;;;;;;;10.70;9.60;;;;;;;;;;6189280;23;20194;-87
2022/04/23 06:08:19;;;;;;;8.07;7.27;;;;;;;;;;6189110;23;20174;-87
2022/04/23 06:10:47;;;;;;;8.50;7.60;;;;;;;;;;6189486;23;20228;-87
2022/04/23 06:13:17;;;;;;;9.13;8.20;;;;;;;;;;6189419;23;20178;-87
2022/04/23 06:15:45;;;;;;;13.23;11.83;;;;;;;;;;6189106;23;20198;-87
2022/04/23 06:18:14;;;;;;;10.70;9.43;;;;;;;;;;6189403;23;20178;-87
2022/04/23 06:20:42;;;;;;;8.50;7.20;;;;;;;;;;6188844;23;20179;-87
2022/04/23 06:23:11;;;;;;;13.37;12.03;;;;;;;;;;6188933;23;20265;-87
2022/04/23 06:25:39;;;;;;;9.43;8.43;;;;;;;;;;6189526;23;20175;-86
2022/04/23 06:28:10;;;;;;;10.13;8.63;;;;;;;;;;6215346;23;20178;-87
2022/04/23 06:30:40;;;;;;;10.93;9.80;;;;;;;;;;6189178;23;20179;-87
2022/04/23 06:33:08;;;;;;;11.80;10.23;;;;;;;;;;6215605;23;20257;-87
2022/04/23 06:35:37;;;;;;;11.47;10.33;;;;;;;;;;6188877;23;20202;-87
2022/04/23 06:38:05;;;;;;;10.70;8.70;;;;;;;;;;6183802;23;20211;-87
2022/04/23 06:40:35;;;;;;;9.80;8.80;;;;;;;;;;6184196;23;20175;-87
2022/04/23 06:43:04;;;;;;;10.20;6.97;;;;;;;;;;6183856;23;20179;-86
2022/04/23 06:45:32;;;;;;;11.57;9.77;;;;;;;;;;6184100;23;20197;-87
2022/04/23 06:48:04;;;;;;;7.47;6.70;;;;;;;;;;6183863;23;20181;-87
2022/04/23 06:50:33;;;;;;;14.43;11.80;;;;;;;;;;6183271;23;20222;-87
2022/04/23 06:53:02;;;;;;;12.33;11.10;;;;;;;;;;6185292;23;20175;-87
2022/04/23 06:55:30;;;;;;;11.97;10.77;;;;;;;;;;6183391;23;20191;-87
2022/04/23 06:57:59;;;;;;;9.27;6.97;;;;;;;;;;6183759;23;20183;-87
2022/04/23 07:00:27;;;;;;;10.43;7.70;;;;;;;;;;6208507;23;20176;-87
2022/04/23 07:03:00;;;;;;;7.27;6.53;;;;;;;;;;6185374;23;20177;-87
2022/04/23 07:05:29;;;;;;;9.67;8.47;;;;;;;;;;6183476;23;20191;-87
2022/04/23 07:07:58;;;;;;;9.63;8.73;;;;;;;;;;6183646;23;20180;-87
2022/04/23 07:10:27;;;;;;;10.67;5.93;;;;;;;;;;6183890;23;20184;-87
2022/04/23 07:12:57;;;;;;;5.90;4.87;;;;;;;;;;6185408;23;20187;-87
2022/04/23 07:15:26;;;;;;;9.43;7.50;;;;;;;;;;6187223;23;20270;-87
2022/04/23 07:17:54;;;;;;;8.70;7.10;;;;;;;;;;6187339;23;20178;-87
2022/04/23 07:20:23;;;;;;;9.77;8.77;;;;;;;;;;6185720;23;20184;-87
2022/04/23 07:25:39;;;;;;;11.20;8.80;;;;;;;;;;6185697;23;20175;-87
2022/04/23 07:28:07;;;;;;;11.77;10.57;;;;;;;;;;6185683;23;20183;-87
2022/04/23 07:30:37;;;;;;;10.00;9.10;;;;;;;;;;6185640;23;20175;-88
2022/04/23 07:33:05;;;;;;;9.47;8.67;;;;;;;;;;6185527;23;20186;-87
2022/04/23 07:38:21;;;;;;;11.20;10.03;;;;;;;;;;6126382;23;20176;-86
2022/04/23 07:40:50;;;;;;;12.60;7.60;;;;;;;;;;6185171;23;20262;-86
2022/04/23 07:43:19;;;;;;;11.13;10.03;;;;;;;;;;6210414;23;20179;-86
2022/04/23 07:45:48;;;;;;;11.67;10.53;;;;;;;;;;6185480;23;20179;-86
2022/04/23 07:48:16;;;;;;;11.03;9.80;;;;;;;;;;6186597;23;20170;-86
2022/04/23 07:50:45;;;;;;;10.13;7.47;;;;;;;;;;6186910;23;20172;-86
2022/04/23 07:53:13;;;;;;;8.00;7.13;;;;;;;;;;6185303;23;20186;-86
2022/04/23 07:55:43;;;;;;;11.17;9.30;;;;;;;;;;6185536;23;20200;-86
2022/04/23 07:58:11;;;;;;;9.80;6.47;;;;;;;;;;6185526;23;20191;-86
2022/04/23 08:00:40;;;;;;;7.90;7.20;;;;;;;;;;6185526;23;20275;-86
2022/04/23 08:03:09;;;;;;;10.87;9.50;;;;;;;;;;6185239;23;20188;-86
2022/04/23 08:05:38;;;;;;;12.93;9.63;;;;;;;;;;6184700;23;20266;-86
2022/04/23 08:08:07;;;;;;;9.83;8.90;;;;;;;;;;6185509;23;20183;-86
2022/04/23 08:10:36;;;;;;;8.53;7.63;;;;;;;;;;6185070;23;20259;-87
2022/04/23 08:13:05;;;;;;;11.23;8.27;;;;;;;;;;6185371;23;20177;-86
2022/04/23 08:15:34;;;;;;;8.30;6.03;;;;;;;;;;6185117;23;20196;-86
2022/04/23 08:18:02;;;;;;;10.93;6.53;;;;;;;;;;6185118;23;20180;-86
2022/04/23 08:20:31;;;;;;;14.23;8.80;;;;;;;;;;6185507;23;20179;-86
2022/04/23 08:22:59;;;;;;;9.37;7.87;;;;;;;;;;6184607;23;20182;-86
2022/04/23 08:25:28;;;;;;;8.43;6.57;;;;;;;;;;6185156;23;20179;-86
2022/04/23 08:30:34;;;;;;;9.93;8.93;;;;;;;;;;6185085;23;20180;-87
2022/04/23 08:30:47;;;;;;;10.50;9.43;;;;;;;;;;6185197;23;20188;-86
2022/04/23 08:33:15;;;;;;;14.07;12.57;;;;;;;;;;6186041;23;20168;-86
2022/04/23 08:35:43;;;;;;;10.37;9.13;;;;;;;;;;6185135;23;20204;-86
2022/04/23 08:38:12;;;;;;;8.13;7.30;;;;;;;;;;6190041;23;20184;-86
2022/04/23 08:40:41;;;;;;;10.93;9.67;;;;;;;;;;6216510;23;20179;-86
2022/04/23 08:43:10;;;;;;;10.13;7.10;;;;;;;;;;6216215;23;20168;-86
2022/04/23 08:45:39;;;;;;;10.13;8.80;;;;;;;;;;6215046;23;20172;-87
2022/04/23 08:48:11;;;;;;;8.40;7.60;;;;;;;;;;6189684;23;20175;-86
2022/04/23 08:50:41;;;;;;;11.90;10.80;;;;;;;;;;6190075;23;20178;-86
2022/04/23 08:53:13;;;;;;;10.43;8.70;;;;;;;;;;6189979;23;20179;-86
2022/04/23 08:55:45;;;;;;;11.50;9.97;;;;;;;;;;6189730;23;20204;-87
2022/04/23 08:58:13;;;;;;;12.03;11.00;;;;;;;;;;6189526;23;20176;-87
2022/04/23 09:00:42;;;;;;;8.07;7.37;;;;;;;;;;6189689;23;20177;-87
2022/04/23 09:03:15;;;;;;;17.57;10.07;;;;;;;;;;6189530;23;20177;-87
2022/04/23 09:05:44;;;;;;;9.17;8.27;;;;;;;;;;6215763;23;20190;-87
2022/04/23 09:08:13;;;;;;;9.93;9.03;;;;;;;;;;6189745;23;20200;-87
2022/04/23 09:10:45;;;;;;;14.93;11.23;;;;;;;;;;6189851;23;20182;-87
2022/04/23 09:13:25;;;;;;;10.17;8.73;;;;;;;;;;6189646;23;20231;-87
2022/04/23 09:24:45;;;;;;;11.87;10.60;;;;;;;;;;6215632;23;20180;-87
2022/04/23 09:27:13;;;;;;;12.10;11.03;;;;;;;;;;6189915;23;20167;-87
2022/04/23 09:29:42;;;;;;;15.37;12.97;;;;;;;;;;6189209;23;20184;-87
2022/04/23 09:32:12;;;;;;;13.17;8.50;;;;;;;;;;6189254;23;20180;-87
2022/04/23 09:34:42;;;;;;;14.67;13.17;;;;;;;;;;6189152;23;20177;-87
2022/04/23 09:37:10;;;;;;;14.97;11.97;;;;;;;;;;6189064;23;20271;-87
2022/04/23 09:39:39;;;;;;;7.27;6.37;;;;;;;;;;6189324;23;20230;-87
2022/04/23 09:42:13;;;;;;;13.60;12.20;;;;;;;;;;6216038;23;20169;-86
2022/04/23 09:44:42;;;;;;;16.27;13.13;;;;;;;;;;6189042;23;20174;-87
2022/04/23 09:47:12;;;;;;;16.13;12.63;;;;;;;;;;6215637;23;20517;-87
2022/04/23 09:49:55;;;;;;;11.53;9.53;;;;;;;;;;6215634;23;20251;-87
2022/04/23 09:52:28;;;;;;;14.73;12.97;;;;;;;;;;6189281;23;20181;-87
2022/04/23 09:55:17;;;;;;;11.67;10.03;;;;;;;;;;6188850;23;20175;-87
2022/04/23 09:57:46;;;;;;;14.70;11.00;;;;;;;;;;6189149;23;20212;-87
2022/04/23 10:00:15;;;;;;;14.60;13.13;;;;;;;;;;6189286;23;20181;-87
2022/04/23 10:02:46;;;;;;;14.10;9.67;;;;;;;;;;6189428;23;20177;-87
2022/04/23 10:05:18;;;;;;;13.33;12.03;;;;;;;;;;6189235;23;20212;-87
2022/04/23 10:07:51;;;;;;;11.80;10.13;;;;;;;;;;6188964;23;20177;-87
2022/04/23 10:10:20;;;;;;;12.13;10.30;;;;;;;;;;6188788;23;20203;-87
2022/04/23 10:12:49;;;;;;;15.80;14.10;;;;;;;;;;6188731;23;20182;-87
2022/04/23 10:15:17;;;;;;;15.20;13.60;;;;;;;;;;6215765;23;20174;-87
2022/04/23 10:17:46;;;;;;;17.07;14.87;;;;;;;;;;6189108;23;20200;-87
2022/04/23 10:20:16;;;;;;;16.40;14.70;;;;;;;;;;6215053;23;20184;-87
2022/04/23 10:22:58;;;;;;;14.33;12.90;;;;;;;;;;6189134;23;20189;-86
2022/04/23 10:25:31;;;;;;;10.40;9.37;;;;;;;;;;6189175;23;20205;-86
2022/04/23 10:28:00;;;;;;;10.43;9.27;;;;;;;;;;6188945;23;20178;-86
2022/04/23 10:30:29;;;;;;;15.23;12.70;;;;;;;;;;6188871;23;20232;-86
2022/04/23 10:32:57;;;;;;;15.57;14.17;;;;;;;;;;6188952;23;20178;-86
2022/04/23 10:35:35;;;;;;;12.80;11.37;;;;;;;;;;6164245;23;20190;-87
2022/04/23 10:38:22;;;;;;;12.33;10.73;;;;;;;;;;6188292;23;20209;-87
2022/04/23 10:40:55;;;;;;;12.03;9.83;;;;;;;;;;6188676;23;20174;-87
2022/04/23 10:43:25;;;;;;;14.03;12.60;;;;;;;;;;6188805;23;20182;-87
2022/04/23 10:45:54;;;;;;;16.53;12.40;;;;;;;;;;6188709;23;20184;-87
2022/04/23 10:48:29;;;;;;;16.47;10.90;;;;;;;;;;6214838;23;20170;-87
2022/04/23 10:51:04;;;;;;;18.30;12.97;;;;;;;;;;6188629;23;20177;-87
2022/04/23 10:53:51;;;;;;;11.90;10.70;;;;;;;;;;6188462;23;20177;-86
2022/04/23 10:56:23;;;;;;;12.23;10.93;;;;;;;;;;6188506;23;20194;-87
2022/04/23 10:58:52;;;;;;;17.33;11.37;;;;;;;;;;6188545;23;20475;-87
2022/04/23 11:01:29;;;;;;;14.00;10.83;;;;;;;;;;6188525;23;20228;-86
2022/04/23 11:03:59;;;;;;;13.77;12.10;;;;;;;;;;6188758;23;20181;-87
2022/04/23 11:12:37;;;;;;;17.17;15.37;;;;;;;;;;6215021;23;20178;-87
2022/04/23 11:15:15;;;;;;;18.33;15.70;;;;;;;;;;6188707;23;20181;-87
2022/04/23 11:17:48;;;;;;;16.23;12.17;;;;;;;;;;6188570;23;20202;-87
2022/04/23 11:20:26;;;;;;;17.87;12.57;;;;;;;;;;6214890;23;20249;-86
2022/04/23 11:22:57;;;;;;;17.00;13.30;;;;;;;;;;6188843;23;20178;-87
2022/04/23 11:25:25;;;;;;;13.23;10.80;;;;;;;;;;6188989;23;20184;-87
2022/04/23 11:28:00;;;;;;;10.93;9.73;;;;;;;;;;6188580;23;20185;-87
2022/04/23 11:30:30;;;;;;;15.77;13.27;;;;;;;;;;6188590;23;20228;-87
2022/04/23 11:33:13;;;;;;;17.07;15.30;;;;;;;;;;6188705;23;20170;-87
2022/04/23 11:35:42;;;;;;;16.83;14.60;;;;;;;;;;6210323;23;20236;-87
2022/04/23 11:38:22;;;;;;;13.70;10.87;;;;;;;;;;6214542;23;20183;-88
2022/04/23 11:40:51;;;;;;;14.10;12.10;;;;;;;;;;6188725;23;20178;-87
2022/04/23 11:43:29;;;;;;;15.40;13.77;;;;;;;;;;6188794;23;20183;-87
2022/04/23 11:46:02;;;;;;;16.80;14.17;;;;;;;;;;6188661;23;20206;-87
2022/04/23 11:48:40;;;;;;;10.03;8.97;;;;;;;;;;6188613;23;20171;-87
2022/04/23 11:51:12;;;;;;;11.50;8.67;;;;;;;;;;6213750;23;20178;-87
2022/04/23 11:53:59;;;;;;;22.97;14.63;;;;;;;;;;6214807;23;20170;-87
2022/04/23 11:56:29;;;;;;;16.00;14.00;;;;;;;;;;6214753;23;20174;-87
2022/04/23 11:58:59;;;;;;;18.90;13.47;;;;;;;;;;6190175;23;20182;-87
2022/04/23 12:01:27;;;;;;;17.67;10.67;;;;;;;;;;6190693;23;20171;-87
2022/04/23 12:03:57;;;;;;;16.90;12.43;;;;;;;;;;6190057;23;20180;-87
2022/04/23 12:06:25;;;;;;;15.23;13.20;;;;;;;;;;6190054;23;20222;-87
2022/04/23 12:09:06;;;;;;;14.40;11.33;;;;;;;;;;6216576;23;20167;-87
2022/04/23 12:11:35;;;;;;;15.23;13.37;;;;;;;;;;6190035;23;20205;-87
2022/04/23 12:14:03;;;;;;;12.27;9.77;;;;;;;;;;6189847;23;20202;-87
2022/04/23 12:16:36;;;;;;;20.13;17.33;;;;;;;;;;6189808;23;20182;-87
2022/04/23 12:19:06;;;;;;;14.50;12.47;;;;;;;;;;6189713;23;20255;-87
2022/04/23 12:21:35;;;;;;;10.97;8.70;;;;;;;;;;6216511;23;20175;-87
2022/04/23 12:24:09;;;;;;;16.80;12.47;;;;;;;;;;6189960;23;20181;-87
2022/04/23 12:26:38;;;;;;;12.97;11.20;;;;;;;;;;6190321;23;20181;-87
2022/04/23 12:43:21;;;;;;;13.07;9.83;;;;;;;;;;6189756;23;20175;-87
2022/04/23 12:45:49;;;;;;;12.90;10.43;;;;;;;;;;6189700;23;20174;-88
2022/04/23 12:48:18;;;;;;;8.60;7.43;;;;;;;;;;6189951;23;20175;-87
2022/04/23 12:50:46;;;;;;;10.07;8.40;;;;;;;;;;6189828;23;20257;-87
2022/04/23 12:53:29;;;;;;;9.00;7.47;;;;;;;;;;6189978;23;20179;-87
2022/04/23 12:56:01;;;;;;;13.27;11.93;;;;;;;;;;6186306;23;20202;-87
2022/04/23 12:58:31;;;;;;;12.73;11.03;;;;;;;;;;6189947;23;20194;-87
2022/04/23 13:00:59;;;;;;;12.77;11.47;;;;;;;;;;6189492;23;20204;-88
2022/04/23 13:03:44;;;;;;;15.17;9.97;;;;;;;;;;6189745;23;20189;-87
2022/04/23 13:08:59;;;;;;;14.03;10.83;;;;;;;;;;6188790;23;20170;-87
2022/04/23 13:11:30;;;;;;;15.73;10.43;;;;;;;;;;6189702;23;20178;-88
2022/04/23 13:13:59;;;;;;;12.30;10.60;;;;;;;;;;6189155;23;20209;-87
2022/04/23 13:16:29;;;;;;;10.70;8.63;;;;;;;;;;6189693;23;20210;-87
2022/04/23 13:18:58;;;;;;;9.67;8.67;;;;;;;;;;6189072;23;20240;-87
2022/04/23 13:21:27;;;;;;;21.37;10.50;;;;;;;;;;6189505;23;20297;-87
2022/04/23 13:23:56;;;;;;;12.37;10.87;;;;;;;;;;6215602;23;20181;-87
2022/04/23 13:26:25;;;;;;;14.53;13.13;;;;;;;;;;6189489;23;20213;-87
2022/04/23 13:28:55;;;;;;;12.73;8.33;;;;;;;;;;6189539;23;20170;-87
2022/04/23 13:31:24;;;;;;;12.97;11.67;;;;;;;;;;6215952;23;20178;-87
2022/04/23 13:33:52;;;;;;;13.90;12.07;;;;;;;;;;6189789;23;20173;-87
2022/04/23 13:36:21;;;;;;;14.27;12.20;;;;;;;;;;6215558;23;20209;-87
2022/04/23 13:38:49;;;;;;;10.77;9.33;;;;;;;;;;6189699;23;20203;-86
2022/04/23 13:41:19;;;;;;;11.63;9.60;;;;;;;;;;6215751;23;20170;-87
2022/04/23 13:43:48;;;;;;;13.67;12.30;;;;;;;;;;6189450;23;20183;-88
2022/04/23 13:46:27;;;;;;;13.57;12.20;;;;;;;;;;6189294;23;20175;-87
2022/04/23 13:48:56;;;;;;;14.83;13.43;;;;;;;;;;6215905;23;20167;-88
2022/04/23 13:51:24;;;;;;;13.47;11.33;;;;;;;;;;6189008;23;20263;-87
2022/04/23 13:53:53;;;;;;;12.77;10.40;;;;;;;;;;6189311;23;20205;-88
2022/04/23 13:56:21;;;;;;;11.37;10.27;;;;;;;;;;6189567;23;20247;-88
2022/04/23 13:58:49;;;;;;;13.53;11.77;;;;;;;;;;6188895;23;20190;-88
2022/04/23 14:01:21;;;;;;;10.10;8.97;;;;;;;;;;6189373;23;20244;-87
2022/04/23 14:12:15;;;;;;;10.23;8.13;;;;;;;;;;6144869;23;20175;-87
2022/04/23 14:14:44;;;;;;;10.87;9.07;;;;;;;;;;6188825;23;20186;-87
2022/04/23 14:17:14;;;;;;;13.57;10.27;;;;;;;;;;6188674;23;20176;-87
2022/04/23 14:19:42;;;;;;;11.37;8.87;;;;;;;;;;6188588;23;20196;-87
2022/04/23 14:22:10;;;;;;;11.03;8.27;;;;;;;;;;6215057;23;20187;-87
2022/04/23 14:24:39;;;;;;;7.40;6.20;;;;;;;;;;6188921;23;20184;-87
2022/04/23 14:27:07;;;;;;;10.00;8.00;;;;;;;;;;6188930;23;20190;-87
2022/04/23 14:29:36;;;;;;;8.83;7.60;;;;;;;;;;6215206;23;20229;-87
2022/04/23 14:32:05;;;;;;;11.67;10.53;;;;;;;;;;6215009;23;20185;-87
2022/04/23 14:34:35;;;;;;;10.90;9.63;;;;;;;;;;6188989;23;20181;-87
2022/04/23 14:37:03;;;;;;;8.73;7.93;;;;;;;;;;6188619;23;20209;-87
2022/04/23 14:39:32;;;;;;;10.87;8.27;;;;;;;;;;6188911;23;20256;-87
2022/04/23 14:42:01;;;;;;;12.07;10.47;;;;;;;;;;6214939;23;20193;-87
2022/04/23 14:44:30;;;;;;;12.00;8.73;;;;;;;;;;6189005;23;20179;-88
2022/04/23 14:47:00;;;;;;;10.50;9.17;;;;;;;;;;6188586;23;20174;-87
2022/04/23 14:49:35;;;;;;;9.87;8.30;;;;;;;;;;6189016;23;20237;-87
2022/04/23 14:54:47;;;;;;;10.07;9.07;;;;;;;;;;6124867;23;20178;-87
2022/04/23 14:57:15;;;;;;;7.23;6.53;;;;;;;;;;6213669;23;20182;-87
2022/04/23 14:59:43;;;;;;;6.90;6.20;;;;;;;;;;6215086;23;20186;-87
2022/04/23 15:02:12;;;;;;;12.70;11.03;;;;;;;;;;6214571;23;20179;-87
2022/04/23 15:04:42;;;;;;;8.43;7.57;;;;;;;;;;6188784;23;20184;-87
2022/04/23 15:07:10;;;;;;;10.57;6.70;;;;;;;;;;6214842;23;20217;-87
2022/04/23 15:09:39;;;;;;;7.80;7.00;;;;;;;;;;6188871;23;20216;-88
2022/04/23 15:12:09;;;;;;;8.93;8.03;;;;;;;;;;6188174;23;20171;-88
2022/04/23 15:14:38;;;;;;;8.23;7.20;;;;;;;;;;6188402;23;20179;-87
2022/04/23 15:17:06;;;;;;;10.27;7.63;;;;;;;;;;6188746;23;20253;-87
2022/04/23 15:19:35;;;;;;;7.07;6.27;;;;;;;;;;6188516;23;20198;-85
2022/04/23 15:22:06;;;;;;;7.83;7.13;;;;;;;;;;6188977;23;20181;-85
2022/04/23 15:24:34;;;;;;;8.57;7.77;;;;;;;;;;6215198;23;20170;-86
2022/04/23 15:27:03;;;;;;;7.07;6.03;;;;;;;;;;6188628;23;20174;-85
2022/04/23 15:29:31;;;;;;;9.00;6.33;;;;;;;;;;6188299;23;20171;-85
2022/04/23 15:31:59;;;;;;;7.27;6.30;;;;;;;;;;6189068;23;20177;-85
2022/04/23 15:34:28;;;;;;;6.73;5.93;;;;;;;;;;6216766;23;20180;-85